Time;durP1;ratioP1;P1;durP2;ratioP2;P2;SDS_P1;SDS_P2;PMS_P1;PMS_P2;Temp;Humidity;BMP_temperature;BMP_pressure;BME280_temperature;BME280_humidity;BME280_pressure;Samples;Min_cycle;Max_cycle;Signal;HPM_P1;HPM_P2
2022/01/17 00:00:07;;;;;;;48.10;14.13;;;;;;;12.34;100.00;102959.41;5040379;28;20052;-58
2022/01/17 00:02:33;;;;;;;42.17;12.85;;;;;;;12.01;100.00;102953.78;5057337;28;20063;-58
2022/01/17 00:04:59;;;;;;;40.47;12.48;;;;;;;12.39;100.00;102951.75;5074770;28;20477;-56
2022/01/17 00:07:29;;;;;;;35.60;12.13;;;;;;;12.31;100.00;102954.38;5056093;28;20086;-57
2022/01/17 00:09:55;;;;;;;32.90;12.15;;;;;;;12.31;100.00;102943.63;5073189;28;20059;-57
2022/01/17 00:12:20;;;;;;;43.80;12.55;;;;;;;12.33;100.00;102941.63;5074693;28;20449;-58
2022/01/17 00:14:46;;;;;;;38.58;11.80;;;;;;;12.24;100.00;102943.41;5074167;28;20488;-59
2022/01/17 00:19:45;;;;;;;35.38;9.85;;;;;;;12.18;100.00;102939.50;5074687;28;20071;-54
2022/01/17 00:22:14;;;;;;;24.67;9.23;;;;;;;12.26;100.00;102940.59;5074216;28;20037;-57
2022/01/17 00:24:41;;;;;;;42.15;10.27;;;;;;;11.98;100.00;102948.66;5073974;28;20033;-57
2022/01/17 00:27:07;;;;;;;41.70;9.43;;;;;;;12.39;100.00;102943.69;5056292;28;20041;-57
2022/01/17 00:29:34;;;;;;;31.75;9.48;;;;;;;12.59;100.00;102948.88;5039775;28;20040;-57
2022/01/17 00:32:01;;;;;;;26.75;8.60;;;;;;;12.53;100.00;102957.56;5039375;28;20044;-58
2022/01/17 00:34:27;;;;;;;40.28;9.77;;;;;;;12.33;100.00;102958.56;5073822;28;20056;-56
2022/01/17 00:36:53;;;;;;;30.02;8.45;;;;;;;12.61;100.00;102960.28;5074413;28;20434;-56
2022/01/17 00:39:19;;;;;;;26.70;7.80;;;;;;;12.18;100.00;102955.59;5073790;28;20032;-58
2022/01/17 00:41:44;;;;;;;35.92;7.78;;;;;;;11.96;100.00;102956.88;5073480;28;20055;-58
2022/01/17 00:44:10;;;;;;;28.80;7.38;;;;;;;12.37;100.00;102958.28;5073579;28;20067;-58
2022/01/17 00:46:36;;;;;;;31.67;7.47;;;;;;;12.23;100.00;102952.47;5055833;28;20028;-58
2022/01/17 00:49:03;;;;;;;33.45;7.22;;;;;;;12.36;100.00;102945.88;5073341;28;20725;-58
2022/01/17 00:51:28;;;;;;;;;;;;;;;12.33;100.00;102952.38;5073892;28;20032;-58
2022/01/17 00:53:54;;;;;;;20.90;6.50;;;;;;;12.08;100.00;102970.94;5073313;28;20371;-57
2022/01/17 00:56:21;;;;;;;35.47;6.07;;;;;;;12.38;100.00;102982.25;5073649;28;20059;-59
2022/01/17 00:58:47;;;;;;;22.45;5.50;;;;;;;12.34;100.00;102978.19;5056049;28;20040;-59
2022/01/17 01:01:12;;;;;;;31.92;6.57;;;;;;;12.38;100.00;102976.06;5039123;28;20035;-59
2022/01/17 01:03:38;;;;;;;30.50;5.87;;;;;;;12.40;100.00;102963.34;5055271;28;20047;-59
2022/01/17 01:06:04;;;;;;;25.95;5.10;;;;;;;11.74;100.00;102960.81;5073327;28;20131;-58
2022/01/17 01:08:30;;;;;;;26.08;4.80;;;;;;;12.19;100.00;102962.63;5055296;28;20082;-62
2022/01/17 01:10:55;;;;;;;19.73;5.40;;;;;;;12.31;100.00;102968.59;5055417;28;20045;-59
2022/01/17 01:13:24;;;;;;;22.83;5.40;;;;;;;12.22;100.00;102961.50;5072935;28;20431;-58
2022/01/17 01:29:13;;;;;;;19.10;3.88;;;;;;;12.34;100.00;102975.53;5073464;28;20166;-58
2022/01/17 01:32:04;;;;;;;23.13;3.60;;;;;;;12.33;100.00;102979.19;5073246;28;20032;-57
2022/01/17 01:34:35;;;;;;;22.95;3.50;;;;;;;12.35;100.00;102985.25;5073215;28;20048;-57
2022/01/17 01:37:04;;;;;;;19.13;2.83;;;;;;;12.37;100.00;102985.94;5072978;28;20036;-58
2022/01/17 01:39:31;;;;;;;18.98;3.20;;;;;;;12.30;100.00;102974.97;5072953;28;20043;-57
2022/01/17 01:41:58;;;;;;;13.45;2.40;;;;;;;12.15;100.00;102972.00;5072905;28;20120;-57
2022/01/17 01:44:25;;;;;;;19.13;2.75;;;;;;;12.18;100.00;102974.38;5072895;28;20048;-59
2022/01/17 01:46:53;;;;;;;21.83;2.35;;;;;;;11.90;100.00;102985.13;5038213;28;20099;-58
2022/01/17 01:49:19;;;;;;;20.77;2.97;;;;;;;11.68;100.00;102981.06;5055414;28;20043;-56
2022/01/17 01:51:46;;;;;;;16.65;2.22;;;;;;;11.87;100.00;102977.41;5054601;28;20123;-57
2022/01/17 01:54:13;;;;;;;19.05;3.40;;;;;;;11.66;100.00;102972.31;5072704;28;20129;-57
2022/01/17 01:56:43;;;;;;;17.92;2.33;;;;;;;11.64;100.00;102978.81;5072732;28;20135;-57
2022/01/17 01:59:09;;;;;;;12.07;2.42;;;;;;;11.80;100.00;102984.38;5054461;28;20107;-57
2022/01/17 02:01:34;;;;;;;20.63;2.38;;;;;;;11.69;100.00;102987.25;5037931;28;20045;-57
2022/01/17 02:04:01;;;;;;;17.77;2.30;;;;;;;11.45;100.00;102980.59;5072667;28;20033;-57
2022/01/17 02:06:26;;;;;;;;;;;;;;;11.35;100.00;102980.66;5055495;28;20040;-57
2022/01/17 02:08:52;;;;;;;11.40;2.80;;;;;;;11.50;100.00;102982.84;5054719;28;20015;-59
2022/01/17 02:11:18;;;;;;;16.83;2.87;;;;;;;11.45;100.00;102967.19;5072316;28;20162;-58
2022/01/17 02:13:43;;;;;;;20.23;3.17;;;;;;;11.60;100.00;102972.91;5072554;28;20473;-57
2022/01/17 02:16:15;;;;;;;21.17;3.25;;;;;;;11.18;100.00;102975.06;5072331;28;20032;-57
2022/01/17 02:18:42;;;;;;;18.13;2.55;;;;;;;11.58;100.00;102974.88;5055875;28;20052;-57
2022/01/17 02:23:37;;;;;;;15.07;1.80;;;;;;;11.04;100.00;102976.38;5072505;28;20044;-57
2022/01/17 02:26:03;;;;;;;16.85;2.80;;;;;;;11.03;100.00;102977.38;5072100;28;20059;-58
2022/01/17 02:28:28;;;;;;;23.67;3.33;;;;;;;10.68;100.00;102968.19;5072520;28;20044;-56
2022/01/17 02:30:54;;;;;;;13.30;2.83;;;;;;;10.88;100.00;102973.50;5072341;28;20048;-58
2022/01/17 02:33:20;;;;;;;13.60;3.03;;;;;;;10.89;100.00;102973.34;5057141;28;20350;-58
2022/01/17 02:35:49;;;;;;;21.67;2.53;;;;;;;10.81;100.00;102975.03;5058609;28;20060;-58
2022/01/17 02:38:15;;;;;;;16.10;3.30;;;;;;;10.93;100.00;102991.78;5075930;28;20040;-58
2022/01/17 02:40:41;;;;;;;20.10;3.63;;;;;;;11.17;100.00;103005.50;5041425;28;20040;-58
2022/01/17 02:43:07;;;;;;;18.58;3.58;;;;;;;11.41;100.00;102998.78;5075756;28;20037;-58
2022/01/17 02:46:24;;;;;;;;;;;;;;;11.04;100.00;102999.66;5059118;28;20426;-58
2022/01/17 02:48:25;;;;;;;22.50;2.33;;;;;;;10.57;100.00;102995.09;5076532;28;20320;-57
2022/01/17 02:50:52;;;;;;;16.92;2.65;;;;;;;10.79;100.00;102985.06;5057879;28;20028;-58
2022/01/17 02:53:17;;;;;;;;;;;;;;;10.86;100.00;102987.00;5075910;28;20045;-58
2022/01/17 02:55:50;;;;;;;14.10;2.60;;;;;;;10.80;100.00;102976.88;5075586;28;20447;-58
2022/01/17 02:58:19;;;;;;;19.40;2.47;;;;;;;10.57;100.00;102971.00;5057877;28;20046;-58
2022/01/17 03:00:46;;;;;;;14.57;2.35;;;;;;;10.70;100.00;102968.03;5057541;28;20111;-58
2022/01/17 03:03:14;;;;;;;;;;;;;;;10.53;100.00;102982.97;5075843;28;20443;-59
2022/01/17 03:05:40;;;;;;;18.30;2.20;;;;;;;10.25;100.00;102985.50;5057635;28;19912;-58
2022/01/17 03:08:06;;;;;;;9.05;1.77;;;;;;;10.24;100.00;102994.50;5057829;28;20047;-58
2022/01/17 03:13:05;;;;;;;33.42;2.60;;;;;;;10.18;100.00;102985.22;5075563;28;20385;-59
2022/01/17 03:15:30;;;;;;;17.70;3.42;;;;;;;10.29;100.00;102984.22;5075268;28;20064;-58
2022/01/17 03:17:56;;;;;;;21.02;2.90;;;;;;;10.35;100.00;102983.66;5075349;28;20467;-57
2022/01/17 03:20:22;;;;;;;17.85;2.80;;;;;;;10.21;100.00;102981.41;5075119;28;20024;-58
2022/01/17 03:22:47;;;;;;;27.90;3.50;;;;;;;9.92;100.00;102982.22;5074974;28;20129;-59
2022/01/17 03:25:13;;;;;;;13.63;2.30;;;;;;;9.72;100.00;102972.34;5075331;28;20048;-59
2022/01/17 03:27:38;;;;;;;14.07;3.10;;;;;;;9.66;100.00;102986.25;5074976;28;20041;-57
2022/01/17 03:30:05;;;;;;;20.57;3.13;;;;;;;9.85;100.00;102982.78;5057639;28;20052;-58
2022/01/17 03:32:31;;;;;;;18.33;2.88;;;;;;;9.64;100.00;102982.88;5074886;28;20423;-59
2022/01/17 03:34:57;;;;;;;19.95;3.38;;;;;;;9.59;100.00;102977.94;5057173;28;20466;-59
2022/01/17 03:37:22;;;;;;;17.20;3.67;;;;;;;9.59;100.00;102987.78;5075363;28;20385;-58
2022/01/17 03:39:48;;;;;;;37.63;7.32;;;;;;;9.81;100.00;102980.53;5057971;28;20045;-57
2022/01/17 03:42:14;;;;;;;27.73;5.73;;;;;;;9.73;100.00;102982.03;5057251;28;20086;-57
2022/01/17 03:44:39;;;;;;;23.50;5.65;;;;;;;9.67;100.00;102987.09;5040258;28;20500;-58
2022/01/17 03:47:05;;;;;;;27.63;4.97;;;;;;;9.58;100.00;102976.25;5057030;28;20400;-57
2022/01/17 03:49:31;;;;;;;39.60;5.43;;;;;;;9.56;100.00;102988.03;5074830;28;20123;-60
2022/01/17 03:51:56;;;;;;;14.17;2.80;;;;;;;9.33;100.00;102978.41;5074865;28;20036;-58
2022/01/17 03:54:22;;;;;;;13.80;2.83;;;;;;;9.39;100.00;102973.50;5075075;28;20064;-57
2022/01/17 03:56:47;;;;;;;15.43;2.70;;;;;;;9.46;100.00;102972.84;5057261;28;20040;-57
2022/01/17 03:59:13;;;;;;;28.47;5.80;;;;;;;9.41;100.00;102974.22;5057190;28;20044;-57
2022/01/17 04:01:39;;;;;;;28.90;7.10;;;;;;;9.43;100.00;102969.59;5056312;28;20288;-57
2022/01/17 04:04:05;;;;;;;;;;;;;;;9.36;100.00;102976.44;5074903;28;20052;-58
2022/01/17 04:06:30;;;;;;;22.27;5.40;;;;;;;9.35;100.00;102982.78;5056539;28;19916;-58
2022/01/17 04:08:56;;;;;;;35.97;6.27;;;;;;;9.42;100.00;102987.44;5074469;28;20040;-58
2022/01/17 04:11:21;;;;;;;42.87;8.50;;;;;;;9.26;100.00;102989.75;5074386;28;20041;-57
2022/01/17 04:13:47;;;;;;;45.42;8.55;;;;;;;9.41;100.00;102990.25;5056211;28;20040;-58
2022/01/17 04:16:13;;;;;;;33.33;7.73;;;;;;;8.99;100.00;102989.34;5039780;28;20040;-57
2022/01/17 04:18:38;;;;;;;40.78;10.00;;;;;;;9.44;100.00;102995.31;5074545;28;20353;-57
2022/01/17 04:21:04;;;;;;;26.88;6.60;;;;;;;9.42;100.00;102994.59;5056949;28;20045;-55
2022/01/17 04:23:30;;;;;;;21.60;4.28;;;;;;;9.18;100.00;102991.28;5074506;28;20434;-58
2022/01/17 04:25:56;;;;;;;32.90;5.63;;;;;;;9.23;100.00;102992.69;5056141;28;20081;-57
2022/01/17 04:28:21;;;;;;;37.08;6.15;;;;;;;9.25;100.00;103002.28;5055982;28;20044;-57
2022/01/17 04:30:47;;;;;;;24.90;5.03;;;;;;;9.32;100.00;103014.09;5073799;28;20135;-56
2022/01/17 04:33:13;;;;;;;20.73;4.93;;;;;;;9.32;100.00;103011.44;5056334;28;20049;-59
2022/01/17 04:35:40;;;;;;;18.42;3.78;;;;;;;9.29;100.00;103011.72;5073778;28;20126;-57
2022/01/17 04:38:08;;;;;;;15.63;2.28;;;;;;;9.32;100.00;103014.09;5073619;28;20041;-56
2022/01/17 04:40:37;;;;;;;16.15;2.95;;;;;;;9.28;100.00;102995.81;5073864;28;20047;-58
2022/01/17 04:43:05;;;;;;;19.58;3.38;;;;;;;9.68;100.00;103012.81;5073683;28;20033;-58
2022/01/17 04:45:32;;;;;;;12.38;2.67;;;;;;;9.69;100.00;103011.88;5055872;28;20403;-57
2022/01/17 04:47:57;;;;;;;15.95;3.60;;;;;;;9.62;100.00;103019.56;5074049;28;20037;-52
2022/01/17 04:50:26;;;;;;;21.98;3.15;;;;;;;9.50;100.00;103005.47;5057051;28;20114;-52
2022/01/17 04:52:55;;;;;;;12.77;2.95;;;;;;;9.42;100.00;103003.47;5074107;28;20135;-52
2022/01/17 04:55:21;;;;;;;21.40;4.30;;;;;;;9.61;100.00;103008.03;5039160;28;20076;-56
2022/01/17 04:57:48;;;;;;;24.65;4.07;;;;;;;9.65;100.00;103002.41;5074760;28;20385;-52
2022/01/17 05:00:15;;;;;;;;;;;;;;;9.55;100.00;103013.06;5074622;28;20047;-52
2022/01/17 05:02:42;;;;;;;19.73;4.43;;;;;;;9.43;100.00;103014.97;5073509;28;19916;-52
2022/01/17 05:05:09;;;;;;;26.85;6.68;;;;;;;9.40;100.00;103010.78;5056384;28;20438;-52
2022/01/17 05:07:34;;;;;;;28.63;7.95;;;;;;;9.33;100.00;103014.94;5056954;28;20442;-52
2022/01/17 05:10:02;;;;;;;31.17;8.60;;;;;;;9.65;100.00;103011.28;5056068;28;20036;-51
2022/01/17 05:12:28;;;;;;;34.78;8.93;;;;;;;9.38;100.00;103012.75;5056351;28;20142;-53
2022/01/17 05:14:55;;;;;;;40.38;9.32;;;;;;;9.33;100.00;103012.28;5056266;28;20078;-54
2022/01/17 05:19:57;;;;;;;42.38;10.85;;;;;;;9.29;100.00;103016.19;5057332;28;20051;-52
2022/01/17 05:22:26;;;;;;;35.47;9.95;;;;;;;9.35;100.00;103018.34;5073858;28;20075;-54
2022/01/17 05:24:52;;;;;;;41.17;12.30;;;;;;;8.94;100.00;103018.25;5073631;28;20055;-56
2022/01/17 05:27:17;;;;;;;43.57;11.07;;;;;;;8.86;100.00;103026.06;5073966;28;20473;-51
2022/01/17 05:29:43;;;;;;;42.72;10.43;;;;;;;8.84;100.00;103031.53;5073458;28;20400;-52
2022/01/17 05:32:08;;;;;;;43.75;10.57;;;;;;;8.87;100.00;103030.44;5073724;28;20479;-54
2022/01/17 05:34:40;;;;;;;31.07;9.93;;;;;;;8.79;100.00;103031.06;5055917;28;20503;-51
2022/01/17 05:37:06;;;;;;;33.38;9.70;;;;;;;9.00;100.00;103032.91;5039832;28;20051;-53
2022/01/17 05:39:32;;;;;;;;;;;;;;;9.17;100.00;103023.44;5073854;28;20037;-52
2022/01/17 05:41:57;;;;;;;40.97;13.10;;;;;;;8.99;100.00;103023.19;5073292;28;19928;-51
2022/01/17 05:44:23;;;;;;;40.10;10.77;;;;;;;8.89;100.00;103028.47;5073451;28;20028;-54
2022/01/17 05:46:48;;;;;;;51.60;11.37;;;;;;;8.90;100.00;103011.50;5074088;28;20068;-53
2022/01/17 05:49:13;;;;;;;46.67;11.67;;;;;;;8.75;100.00;103022.47;5076057;28;20048;-57
2022/01/17 05:51:39;;;;;;;47.93;13.20;;;;;;;8.89;100.00;103017.81;5060313;28;20056;-50
2022/01/17 05:54:05;;;;;;;45.60;13.00;;;;;;;9.16;100.00;103006.59;5061388;28;20041;-52
2022/01/17 05:56:30;;;;;;;55.00;14.43;;;;;;;8.94;100.00;102996.91;5079233;28;20269;-51
2022/01/17 05:58:56;;;;;;;39.87;12.00;;;;;;;8.85;100.00;103003.03;5061844;28;20049;-52
2022/01/17 06:01:21;;;;;;;45.90;12.43;;;;;;;8.91;100.00;103002.50;5078105;28;20123;-52
2022/01/17 06:03:47;;;;;;;45.73;11.67;;;;;;;8.97;100.00;103012.66;5061718;28;20036;-55
2022/01/17 06:06:12;;;;;;;41.97;13.17;;;;;;;9.03;100.00;103016.63;5079558;28;20028;-52
2022/01/17 06:08:38;;;;;;;42.53;11.43;;;;;;;9.23;100.00;103009.59;5080731;28;20583;-52
2022/01/17 06:11:04;;;;;;;40.43;14.60;;;;;;;8.88;100.00;103011.63;5081435;28;20491;-51
2022/01/17 06:13:29;;;;;;;58.83;15.23;;;;;;;8.98;100.00;103033.00;5065030;28;20040;-53
2022/01/17 06:15:55;;;;;;;39.50;13.97;;;;;;;8.91;100.00;103042.53;5064464;28;20490;-53
2022/01/17 06:18:20;;;;;;;30.20;12.33;;;;;;;9.11;100.00;103042.66;5081738;28;20291;-51
2022/01/17 06:20:46;;;;;;;24.60;10.73;;;;;;;9.19;100.00;103045.50;5080567;28;20044;-52
2022/01/17 06:23:11;;;;;;;27.33;10.70;;;;;;;9.19;100.00;103056.19;5083529;28;20039;-53
2022/01/17 06:25:37;;;;;;;31.97;10.43;;;;;;;9.18;100.00;103047.34;5082781;28;20044;-56
2022/01/17 06:28:02;;;;;;;33.43;9.73;;;;;;;9.27;100.00;103050.19;5077538;28;20732;-54
2022/01/17 06:30:28;;;;;;;28.30;10.32;;;;;;;9.02;100.00;103063.84;5077287;28;20036;-51
2022/01/17 06:32:54;;;;;;;27.13;10.32;;;;;;;9.00;100.00;103046.25;5077532;28;20052;-54
2022/01/17 06:35:19;;;;;;;32.00;10.83;;;;;;;9.15;100.00;103036.06;5077753;28;20040;-54
2022/01/17 06:37:45;;;;;;;33.97;12.10;;;;;;;9.18;100.00;103038.47;5077638;28;20380;-51
2022/01/17 06:40:12;;;;;;;24.13;11.02;;;;;;;8.97;100.00;103026.00;5077882;28;20041;-52
2022/01/17 06:42:38;;;;;;;46.03;13.55;;;;;;;8.94;100.00;103039.59;5076691;28;20035;-53
2022/01/17 06:45:05;;;;;;;34.70;12.65;;;;;;;9.16;100.00;103040.44;5077688;28;20040;-52
2022/01/17 06:47:32;;;;;;;39.67;15.77;;;;;;;9.25;100.00;103026.31;5077106;28;20048;-54
2022/01/17 06:49:57;;;;;;;;;;;;;;;8.94;100.00;103026.25;5079432;28;20044;-53
2022/01/17 06:52:23;;;;;;;55.20;18.27;;;;;;;8.86;100.00;103023.41;5079029;28;19916;-52
2022/01/17 06:54:50;;;;;;;57.67;18.60;;;;;;;8.97;100.00;103015.31;5059275;28;20041;-52
2022/01/17 06:57:16;;;;;;;52.60;17.60;;;;;;;8.88;100.00;103037.47;5077343;28;20185;-51
2022/01/17 06:59:41;;;;;;;71.82;20.63;;;;;;;9.12;100.00;103044.34;5076657;28;20536;-51
2022/01/17 07:02:08;;;;;;;74.30;24.13;;;;;;;8.92;100.00;103070.91;5077100;28;20484;-51
2022/01/17 07:04:34;;;;;;;51.17;17.97;;;;;;;9.06;100.00;103072.41;5077380;28;20048;-51
2022/01/17 07:07:00;;;;;;;41.83;15.98;;;;;;;8.89;100.00;103095.19;5059448;28;20043;-54
2022/01/17 07:09:26;;;;;;;43.38;16.50;;;;;;;9.33;100.00;103106.59;5076525;28;20040;-55
2022/01/17 07:11:52;;;;;;;43.67;16.85;;;;;;;9.40;100.00;103085.56;5077213;28;20044;-50
2022/01/17 07:14:17;;;;;;;42.97;16.33;;;;;;;9.27;100.00;103083.09;5077004;28;20041;-52
2022/01/17 07:16:43;;;;;;;52.27;17.67;;;;;;;9.54;100.00;103087.03;5077142;28;20661;-54
2022/01/17 07:19:09;;;;;;;47.40;16.30;;;;;;;9.75;100.00;103094.97;5075192;28;20044;-51
2022/01/17 07:21:36;;;;;;;54.85;17.67;;;;;;;9.15;100.00;103093.00;5058462;28;20079;-52
2022/01/17 07:24:02;;;;;;;47.95;18.15;;;;;;;9.27;100.00;103085.75;5076095;28;20499;-54
2022/01/17 07:26:28;;;;;;;49.72;17.70;;;;;;;9.52;100.00;103080.13;5075657;28;20115;-52
2022/01/17 07:28:53;;;;;;;43.20;17.10;;;;;;;9.26;100.00;103065.38;5076091;28;20050;-54
2022/01/17 07:31:19;;;;;;;55.63;20.03;;;;;;;9.25;100.00;103071.69;5076108;28;20388;-51
2022/01/17 07:33:44;;;;;;;71.97;23.45;;;;;;;9.48;100.00;103076.88;5076421;28;20461;-51
2022/01/17 07:36:16;;;;;;;66.93;20.87;;;;;;;9.53;100.00;103100.50;5075931;28;20496;-54
2022/01/17 07:38:41;;;;;;;66.07;20.58;;;;;;;9.58;100.00;103083.09;5075622;28;20336;-54
2022/01/17 07:41:08;;;;;;;57.55;20.40;;;;;;;9.42;100.00;103098.75;5076296;28;20135;-51
2022/01/17 07:43:36;;;;;;;58.00;20.27;;;;;;;9.75;100.00;103115.53;5057848;28;20044;-51
2022/01/17 07:46:06;;;;;;;50.15;20.98;;;;;;;9.45;100.00;103096.69;5057815;28;20051;-52
2022/01/17 07:51:19;;;;;;;54.03;19.13;;;;;;;10.12;100.00;103114.94;5075848;28;20060;-51
2022/01/17 07:53:44;;;;;;;44.80;20.65;;;;;;;10.03;100.00;103118.44;5075846;28;20510;-54
2022/01/17 07:56:10;;;;;;;56.92;20.33;;;;;;;9.89;100.00;103119.66;5075901;28;20040;-54
2022/01/17 07:58:35;;;;;;;56.67;20.93;;;;;;;10.21;100.00;103123.16;5040871;28;20476;-54
2022/01/17 08:01:01;;;;;;;53.83;21.57;;;;;;;9.90;100.00;103119.50;5058849;28;20043;-53
2022/01/17 08:03:26;;;;;;;59.80;21.47;;;;;;;10.28;100.00;103125.16;5077320;28;20052;-52
2022/01/17 08:05:52;;;;;;;47.77;19.70;;;;;;;10.22;100.00;103116.81;5057381;28;20041;-52
2022/01/17 08:08:17;;;;;;;52.27;22.00;;;;;;;10.17;100.00;103119.88;5057351;28;20552;-52
2022/01/17 08:10:42;;;;;;;46.20;18.93;;;;;;;10.02;100.00;103128.28;5075548;28;20073;-53
2022/01/17 08:13:09;;;;;;;52.73;21.53;;;;;;;10.40;100.00;103130.34;5075500;28;20044;-50
2022/01/17 08:15:37;;;;;;;53.25;19.60;;;;;;;10.22;100.00;103130.19;5074852;28;20032;-53
2022/01/17 08:18:04;;;;;;;55.42;21.23;;;;;;;10.18;100.00;103137.63;5057246;28;20076;-53
2022/01/17 08:20:30;;;;;;;51.10;20.30;;;;;;;9.93;100.00;103134.44;5057293;28;20048;-50
2022/01/17 08:22:57;;;;;;;;;;;;;;;10.32;100.00;103142.59;5076458;28;20047;-53
2022/01/17 08:25:22;;;;;;;51.75;17.85;;;;;;;10.52;100.00;103140.00;5075565;28;19931;-50
2022/01/17 08:27:48;;;;;;;52.60;18.70;;;;;;;10.04;100.00;103133.50;5074437;28;20039;-52
2022/01/17 08:30:14;;;;;;;56.60;19.55;;;;;;;10.07;100.00;103132.41;5073703;28;20450;-51
2022/01/17 08:32:41;;;;;;;49.72;17.63;;;;;;;10.23;100.00;103130.03;5074784;28;20041;-52
2022/01/17 08:35:07;;;;;;;46.85;17.85;;;;;;;10.07;100.00;103138.56;5056914;28;20449;-53
2022/01/17 08:37:33;;;;;;;43.83;18.52;;;;;;;10.26;100.00;103139.63;5074584;28;20048;-52
2022/01/17 08:40:00;;;;;;;40.38;16.25;;;;;;;10.37;100.00;103136.81;5075017;28;20033;-52
2022/01/17 08:42:27;;;;;;;41.70;15.40;;;;;;;10.24;100.00;103144.25;5075129;28;20472;-51
2022/01/17 08:44:55;;;;;;;43.45;16.20;;;;;;;10.66;100.00;103130.72;5076277;28;20041;-53
2022/01/17 08:47:21;;;;;;;50.55;15.50;;;;;;;10.52;100.00;103136.47;5077644;28;20040;-54
2022/01/17 08:49:48;;;;;;;32.25;13.98;;;;;;;10.29;100.00;103128.66;5080944;28;20075;-55
2022/01/17 08:52:15;;;;;;;37.88;13.20;;;;;;;10.66;100.00;103138.75;5079438;28;20052;-53
2022/01/17 08:54:42;;;;;;;44.47;14.75;;;;;;;10.48;100.00;103135.88;5079863;28;20511;-55
2022/01/17 08:57:08;;;;;;;34.65;13.45;;;;;;;10.83;100.00;103141.69;5081804;28;20039;-55
2022/01/17 08:59:33;;;;;;;36.92;11.52;;;;;;;10.56;100.00;103137.88;5062388;28;20392;-51
2022/01/17 09:01:59;;;;;;;37.15;11.80;;;;;;;10.72;100.00;103140.84;5058072;28;20047;-53
2022/01/17 09:04:25;;;;;;;51.45;15.70;;;;;;;10.83;100.00;103137.19;5075428;28;20024;-54
2022/01/17 09:06:50;;;;;;;31.10;11.48;;;;;;;10.64;100.00;103131.84;5075982;28;20047;-52
2022/01/17 09:09:19;;;;;;;40.08;11.45;;;;;;;10.99;100.00;103131.28;5056705;28;20111;-53
2022/01/17 09:11:44;;;;;;;29.38;10.40;;;;;;;10.79;100.00;103138.47;5073912;28;20044;-55
2022/01/17 09:14:10;;;;;;;40.15;10.70;;;;;;;10.68;100.00;103138.59;5056569;28;20454;-53
2022/01/17 09:16:37;;;;;;;30.20;9.75;;;;;;;10.74;100.00;103144.25;5024413;28;20492;-54
2022/01/17 09:19:04;;;;;;;;;;;;;;;10.90;100.00;103143.69;5076118;28;20043;-55
2022/01/17 09:21:30;;;;;;;37.10;9.07;;;;;;;10.89;100.00;103159.91;5058363;28;19925;-56
2022/01/17 09:23:58;;;;;;;28.10;9.18;;;;;;;10.64;100.00;103158.59;5057469;28;20048;-54
2022/01/17 09:26:27;;;;;;;31.58;10.48;;;;;;;11.00;100.00;103172.31;5058160;28;20043;-51
2022/01/17 09:28:54;;;;;;;31.17;8.52;;;;;;;10.54;100.00;103175.50;5058258;28;20075;-53
2022/01/17 09:31:20;;;;;;;;;;;;;;;10.70;100.00;103171.41;5060727;28;20045;-54
2022/01/17 09:33:46;;;;;;;32.10;8.83;;;;;;;10.79;100.00;103183.97;5059603;28;19916;-54
2022/01/17 09:36:11;;;;;;;30.58;7.75;;;;;;;11.02;100.00;103186.38;5077470;28;20055;-55
2022/01/17 09:38:37;;;;;;;27.88;7.80;;;;;;;11.03;100.00;103182.72;5075790;28;20037;-51
2022/01/17 09:41:03;;;;;;;34.78;9.50;;;;;;;10.92;100.00;103183.72;5073627;28;20082;-51
2022/01/17 09:43:29;;;;;;;22.92;7.65;;;;;;;11.14;100.00;103190.59;5058565;28;20052;-55
2022/01/17 09:45:55;;;;;;;35.70;7.80;;;;;;;11.23;100.00;103196.94;5077625;28;20101;-54
2022/01/17 09:48:23;;;;;;;27.58;6.93;;;;;;;10.98;100.00;103207.22;5060366;28;20052;-53
2022/01/17 09:51:04;;;;;;;27.00;6.35;;;;;;;10.68;100.00;103203.69;5059433;28;20077;-53
2022/01/17 09:53:38;;;;;;;41.92;7.35;;;;;;;11.16;100.00;103206.53;5076997;28;20052;-55
2022/01/17 09:56:07;;;;;;;19.35;5.68;;;;;;;11.34;100.00;103214.69;5077525;28;20093;-54
2022/01/17 09:58:35;;;;;;;34.10;7.38;;;;;;;11.37;100.00;103224.31;5076470;28;20036;-55
2022/01/17 10:01:03;;;;;;;31.65;6.63;;;;;;;11.00;100.00;103223.16;5076220;28;20037;-55
2022/01/17 10:03:29;;;;;;;26.35;6.05;;;;;;;11.22;100.00;103230.06;5075855;28;20055;-56
2022/01/17 10:05:55;;;;;;;27.27;6.03;;;;;;;11.24;100.00;103224.59;5057677;28;20044;-54
2022/01/17 10:08:22;;;;;;;24.65;5.72;;;;;;;11.47;100.00;103230.47;5064702;28;20044;-54
2022/01/17 10:10:57;;;;;;;;;;;;;;;11.32;100.00;103238.13;5084271;28;20040;-55
2022/01/17 10:13:38;;;;;;;24.88;6.82;;;;;;;11.32;100.00;103228.25;5083764;28;19912;-55
2022/01/17 10:16:04;;;;;;;32.17;6.35;;;;;;;11.53;100.00;103240.63;5084880;28;20075;-56
2022/01/17 10:18:53;;;;;;;24.93;5.87;;;;;;;11.73;100.00;103240.59;5081370;28;20028;-52
2022/01/17 10:21:53;;;;;;;32.60;5.65;;;;;;;11.66;100.00;103243.03;5079964;28;20285;-55
2022/01/17 10:35:30;;;;;;;22.02;6.07;;;;;;;11.82;100.00;103245.13;5074344;28;20098;-55
2022/01/17 10:37:56;;;;;;;29.13;5.87;;;;;;;11.60;100.00;103244.44;5073122;28;20033;-52
2022/01/17 10:40:22;;;;;;;43.40;7.23;;;;;;;12.11;100.00;103249.56;5055649;28;20291;-55
2022/01/17 10:42:49;;;;;;;21.27;5.60;;;;;;;11.79;100.00;103240.03;5073692;28;20090;-56
2022/01/17 10:45:30;;;;;;;27.23;5.25;;;;;;;11.64;100.00;103238.78;5073422;28;20124;-55
2022/01/17 10:47:58;;;;;;;30.13;5.45;;;;;;;12.17;100.00;103248.16;5073930;28;20040;-55
2022/01/17 10:50:33;;;;;;;30.10;5.80;;;;;;;11.76;100.00;103253.72;5072789;28;20041;-51
2022/01/17 10:53:02;;;;;;;34.27;6.17;;;;;;;11.80;100.00;103247.09;5073670;28;20262;-54
2022/01/17 10:55:40;;;;;;;40.57;6.80;;;;;;;11.82;100.00;103250.47;5077107;28;20350;-55
2022/01/17 10:58:12;;;;;;;35.85;5.53;;;;;;;12.30;100.00;103247.81;5076120;28;20269;-55
2022/01/17 11:00:43;;;;;;;34.23;5.60;;;;;;;12.32;100.00;103262.75;5059197;28;20059;-56
2022/01/17 11:03:22;;;;;;;39.23;5.30;;;;;;;12.22;100.00;103253.91;5058556;28;20786;-55
2022/01/17 11:05:49;;;;;;;30.13;6.90;;;;;;;12.69;100.00;103282.53;5076673;28;20273;-56
2022/01/17 11:08:18;;;;;;;30.20;5.27;;;;;;;12.46;100.00;103280.25;5076596;28;20697;-53
2022/01/17 11:10:46;;;;;;;33.33;4.40;;;;;;;12.68;100.00;103294.22;5072855;28;20348;-51
2022/01/17 11:13:16;;;;;;;29.20;4.73;;;;;;;12.26;100.00;103302.75;5076262;28;20279;-54
2022/01/17 11:15:45;;;;;;;29.13;4.53;;;;;;;12.44;100.00;103290.25;5076289;28;20273;-53
2022/01/17 11:18:18;;;;;;;36.97;4.73;;;;;;;12.27;100.00;103285.69;5075992;28;20269;-56
2022/01/17 11:20:45;;;;;;;29.37;5.47;;;;;;;12.40;100.00;103278.13;5076098;28;20352;-53
2022/01/17 11:23:11;;;;;;;31.40;4.82;;;;;;;12.70;100.00;103269.94;5076258;28;20734;-54
2022/01/17 11:25:41;;;;;;;28.38;5.45;;;;;;;12.68;100.00;103263.88;5076049;28;20038;-54
2022/01/17 11:28:08;;;;;;;27.73;4.40;;;;;;;13.10;100.00;103252.56;5075581;28;20037;-56
2022/01/17 11:30:35;;;;;;;28.80;4.63;;;;;;;13.25;100.00;103263.63;5076023;28;20282;-53
2022/01/17 11:33:06;;;;;;;31.83;4.57;;;;;;;13.25;100.00;103260.06;5075362;28;20285;-51
2022/01/17 11:35:37;;;;;;;24.33;5.00;;;;;;;12.94;100.00;103263.16;5075823;28;20629;-54
2022/01/17 11:38:04;;;;;;;33.97;5.20;;;;;;;12.92;100.00;103247.19;5075877;28;20273;-54
2022/01/17 11:40:35;;;;;;;33.13;5.83;;;;;;;12.99;100.00;103253.66;5058153;28;20269;-54
2022/01/17 11:43:16;;;;;;;26.40;4.17;;;;;;;13.04;100.00;103261.25;5075539;28;20807;-56
2022/01/17 11:45:43;;;;;;;31.37;4.77;;;;;;;13.02;100.00;103274.81;5075822;28;20265;-53
2022/01/17 11:48:18;;;;;;;23.33;5.03;;;;;;;12.47;100.00;103281.94;5075450;28;20350;-52